sensor_id;sensor_type;location;lat;lon;timestamp;P1;durP1;ratioP1;P2;durP2;ratioP2
4001;SDS011;2015;48.670;9.060;2023-02-11T00:00:33;59.20;;;30.27;;
4001;SDS011;2015;48.670;9.060;2023-02-11T00:03:05;50.83;;;27.00;;
4001;SDS011;2015;48.670;9.060;2023-02-11T00:05:36;59.35;;;33.65;;
4001;SDS011;2015;48.670;9.060;2023-02-11T00:08:08;50.17;;;30.77;;
4001;SDS011;2015;48.670;9.060;2023-02-11T00:10:40;52.77;;;29.27;;
4001;SDS011;2015;48.670;9.060;2023-02-11T00:13:12;52.40;;;30.40;;
4001;SDS011;2015;48.670;9.060;2023-02-11T00:15:44;51.13;;;28.50;;
4001;SDS011;2015;48.670;9.060;2023-02-11T00:18:15;54.83;;;29.00;;
4001;SDS011;2015;48.670;9.060;2023-02-11T00:20:47;48.13;;;26.03;;
4001;SDS011;2015;48.670;9.060;2023-02-11T00:23:19;47.33;;;27.53;;
4001;SDS011;2015;48.670;9.060;2023-02-11T00:25:52;49.57;;;27.67;;
4001;SDS011;2015;48.670;9.060;2023-02-11T00:28:24;54.40;;;28.30;;
4001;SDS011;2015;48.670;9.060;2023-02-11T00:30:56;57.50;;;30.37;;
4001;SDS011;2015;48.670;9.060;2023-02-11T00:33:28;61.37;;;30.40;;
4001;SDS011;2015;48.670;9.060;2023-02-11T00:36:03;49.50;;;27.90;;
4001;SDS011;2015;48.670;9.060;2023-02-11T00:38:37;56.38;;;31.70;;
4001;SDS011;2015;48.670;9.060;2023-02-11T00:41:09;52.83;;;29.73;;
4001;SDS011;2015;48.670;9.060;2023-02-11T00:43:42;65.57;;;29.40;;
4001;SDS011;2015;48.670;9.060;2023-02-11T00:46:13;49.57;;;29.10;;
4001;SDS011;2015;48.670;9.060;2023-02-11T00:48:45;59.03;;;29.93;;
4001;SDS011;2015;48.670;9.060;2023-02-11T00:51:17;65.83;;;34.57;;
4001;SDS011;2015;48.670;9.060;2023-02-11T00:53:49;56.37;;;30.33;;
4001;SDS011;2015;48.670;9.060;2023-02-11T00:56:21;49.33;;;29.40;;
4001;SDS011;2015;48.670;9.060;2023-02-11T00:58:53;62.13;;;32.90;;
4001;SDS011;2015;48.670;9.060;2023-02-11T01:01:25;62.10;;;33.47;;
4001;SDS011;2015;48.670;9.060;2023-02-11T01:03:57;60.07;;;31.97;;
4001;SDS011;2015;48.670;9.060;2023-02-11T01:06:28;51.40;;;29.20;;
4001;SDS011;2015;48.670;9.060;2023-02-11T01:09:00;54.03;;;28.10;;
4001;SDS011;2015;48.670;9.060;2023-02-11T01:11:32;53.17;;;28.57;;
4001;SDS011;2015;48.670;9.060;2023-02-11T01:14:04;48.40;;;27.40;;
4001;SDS011;2015;48.670;9.060;2023-02-11T01:16:36;48.40;;;29.20;;
4001;SDS011;2015;48.670;9.060;2023-02-11T01:19:08;50.13;;;27.57;;
4001;SDS011;2015;48.670;9.060;2023-02-11T01:21:39;45.77;;;26.60;;
4001;SDS011;2015;48.670;9.060;2023-02-11T01:24:11;59.83;;;31.23;;
4001;SDS011;2015;48.670;9.060;2023-02-11T01:26:43;47.40;;;26.87;;
4001;SDS011;2015;48.670;9.060;2023-02-11T01:29:15;49.97;;;29.07;;
4001;SDS011;2015;48.670;9.060;2023-02-11T01:31:47;57.83;;;31.63;;
4001;SDS011;2015;48.670;9.060;2023-02-11T01:34:19;44.17;;;27.13;;
4001;SDS011;2015;48.670;9.060;2023-02-11T01:36:55;49.63;;;31.40;;
4001;SDS011;2015;48.670;9.060;2023-02-11T01:39:31;56.77;;;29.80;;
4001;SDS011;2015;48.670;9.060;2023-02-11T01:42:04;47.13;;;27.87;;
4001;SDS011;2015;48.670;9.060;2023-02-11T01:44:37;50.10;;;28.27;;
4001;SDS011;2015;48.670;9.060;2023-02-11T01:47:10;56.83;;;28.60;;
4001;SDS011;2015;48.670;9.060;2023-02-11T01:49:43;45.80;;;26.27;;
4001;SDS011;2015;48.670;9.060;2023-02-11T01:54:59;56.03;;;28.83;;
4001;SDS011;2015;48.670;9.060;2023-02-11T01:57:55;55.37;;;30.70;;
4001;SDS011;2015;48.670;9.060;2023-02-11T02:00:33;45.40;;;25.23;;
4001;SDS011;2015;48.670;9.060;2023-02-11T02:03:12;55.50;;;29.33;;
4001;SDS011;2015;48.670;9.060;2023-02-11T02:08:35;44.43;;;25.00;;
4001;SDS011;2015;48.670;9.060;2023-02-11T02:11:11;47.10;;;25.37;;
4001;SDS011;2015;48.670;9.060;2023-02-11T02:13:43;50.10;;;28.17;;
4001;SDS011;2015;48.670;9.060;2023-02-11T02:16:16;48.67;;;26.97;;
4001;SDS011;2015;48.670;9.060;2023-02-11T02:18:55;52.43;;;27.30;;
4001;SDS011;2015;48.670;9.060;2023-02-11T02:25:06;47.13;;;24.80;;
4001;SDS011;2015;48.670;9.060;2023-02-11T02:39:10;39.23;;;23.97;;
4001;SDS011;2015;48.670;9.060;2023-02-11T02:41:50;46.67;;;22.77;;
4001;SDS011;2015;48.670;9.060;2023-02-11T02:44:23;51.07;;;29.07;;
4001;SDS011;2015;48.670;9.060;2023-02-11T02:46:55;49.47;;;30.33;;
4001;SDS011;2015;48.670;9.060;2023-02-11T02:49:27;48.53;;;27.97;;
4001;SDS011;2015;48.670;9.060;2023-02-11T02:52:02;44.57;;;26.57;;
4001;SDS011;2015;48.670;9.060;2023-02-11T03:00:47;47.03;;;25.50;;
4001;SDS011;2015;48.670;9.060;2023-02-11T03:03:40;47.30;;;24.50;;
4001;SDS011;2015;48.670;9.060;2023-02-11T03:06:26;48.07;;;26.20;;
4001;SDS011;2015;48.670;9.060;2023-02-11T03:09:29;41.87;;;24.13;;
4001;SDS011;2015;48.670;9.060;2023-02-11T03:12:18;40.57;;;22.27;;
4001;SDS011;2015;48.670;9.060;2023-02-11T03:14:51;40.17;;;24.27;;
4001;SDS011;2015;48.670;9.060;2023-02-11T03:17:23;49.97;;;26.60;;
4001;SDS011;2015;48.670;9.060;2023-02-11T03:19:56;42.63;;;26.63;;
4001;SDS011;2015;48.670;9.060;2023-02-11T03:22:40;39.60;;;26.67;;
4001;SDS011;2015;48.670;9.060;2023-02-11T03:25:18;41.33;;;24.77;;
4001;SDS011;2015;48.670;9.060;2023-02-11T03:27:51;56.43;;;30.20;;
4001;SDS011;2015;48.670;9.060;2023-02-11T03:30:40;47.20;;;27.70;;
4001;SDS011;2015;48.670;9.060;2023-02-11T03:33:18;41.73;;;22.90;;
4001;SDS011;2015;48.670;9.060;2023-02-11T03:36:11;49.37;;;26.83;;
4001;SDS011;2015;48.670;9.060;2023-02-11T03:38:50;47.20;;;27.90;;
4001;SDS011;2015;48.670;9.060;2023-02-11T03:41:26;45.90;;;27.10;;
4001;SDS011;2015;48.670;9.060;2023-02-11T03:43:58;44.30;;;26.37;;
4001;SDS011;2015;48.670;9.060;2023-02-11T03:46:31;53.50;;;30.50;;
4001;SDS011;2015;48.670;9.060;2023-02-11T03:49:08;58.77;;;31.50;;
4001;SDS011;2015;48.670;9.060;2023-02-11T03:51:50;47.50;;;27.70;;
4001;SDS011;2015;48.670;9.060;2023-02-11T03:54:24;48.40;;;28.47;;
4001;SDS011;2015;48.670;9.060;2023-02-11T03:57:00;46.20;;;28.30;;
4001;SDS011;2015;48.670;9.060;2023-02-11T03:59:48;56.10;;;31.50;;
4001;SDS011;2015;48.670;9.060;2023-02-11T04:02:22;49.53;;;27.70;;
4001;SDS011;2015;48.670;9.060;2023-02-11T04:04:57;45.30;;;27.10;;
4001;SDS011;2015;48.670;9.060;2023-02-11T04:07:29;47.47;;;27.50;;
4001;SDS011;2015;48.670;9.060;2023-02-11T04:10:00;45.20;;;28.10;;
4001;SDS011;2015;48.670;9.060;2023-02-11T04:12:32;42.97;;;27.13;;
4001;SDS011;2015;48.670;9.060;2023-02-11T04:15:04;48.73;;;26.07;;
4001;SDS011;2015;48.670;9.060;2023-02-11T04:17:38;50.03;;;28.23;;
4001;SDS011;2015;48.670;9.060;2023-02-11T04:20:10;50.20;;;29.17;;
4001;SDS011;2015;48.670;9.060;2023-02-11T04:22:43;51.73;;;28.00;;
4001;SDS011;2015;48.670;9.060;2023-02-11T04:25:15;55.43;;;28.27;;
4001;SDS011;2015;48.670;9.060;2023-02-11T04:27:47;50.53;;;26.73;;
4001;SDS011;2015;48.670;9.060;2023-02-11T04:30:19;52.20;;;26.80;;
4001;SDS011;2015;48.670;9.060;2023-02-11T04:32:51;49.73;;;29.00;;
4001;SDS011;2015;48.670;9.060;2023-02-11T04:35:24;54.60;;;32.80;;
4001;SDS011;2015;48.670;9.060;2023-02-11T04:37:56;55.10;;;28.40;;
4001;SDS011;2015;48.670;9.060;2023-02-11T04:40:28;40.20;;;26.60;;
4001;SDS011;2015;48.670;9.060;2023-02-11T04:43:00;54.67;;;30.23;;
4001;SDS011;2015;48.670;9.060;2023-02-11T04:45:32;40.70;;;26.37;;
4001;SDS011;2015;48.670;9.060;2023-02-11T04:48:04;57.43;;;29.37;;
4001;SDS011;2015;48.670;9.060;2023-02-11T04:50:36;41.40;;;25.20;;
4001;SDS011;2015;48.670;9.060;2023-02-11T04:53:10;50.40;;;29.27;;
4001;SDS011;2015;48.670;9.060;2023-02-11T04:55:43;47.07;;;26.70;;
4001;SDS011;2015;48.670;9.060;2023-02-11T04:58:15;45.97;;;27.83;;
4001;SDS011;2015;48.670;9.060;2023-02-11T05:00:48;36.87;;;23.00;;
4001;SDS011;2015;48.670;9.060;2023-02-11T05:03:20;42.03;;;26.30;;
4001;SDS011;2015;48.670;9.060;2023-02-11T05:05:52;55.60;;;29.90;;
4001;SDS011;2015;48.670;9.060;2023-02-11T05:08:24;38.70;;;25.00;;
4001;SDS011;2015;48.670;9.060;2023-02-11T05:10:55;46.30;;;25.40;;
4001;SDS011;2015;48.670;9.060;2023-02-11T05:13:28;46.70;;;27.20;;
4001;SDS011;2015;48.670;9.060;2023-02-11T05:16:00;50.90;;;28.00;;
4001;SDS011;2015;48.670;9.060;2023-02-11T05:18:32;49.43;;;26.83;;
4001;SDS011;2015;48.670;9.060;2023-02-11T05:21:10;40.30;;;24.70;;
4001;SDS011;2015;48.670;9.060;2023-02-11T05:23:46;45.70;;;26.00;;
4001;SDS011;2015;48.670;9.060;2023-02-11T05:26:18;42.07;;;24.33;;
4001;SDS011;2015;48.670;9.060;2023-02-11T05:28:51;46.03;;;30.17;;
4001;SDS011;2015;48.670;9.060;2023-02-11T05:31:23;43.67;;;25.80;;
4001;SDS011;2015;48.670;9.060;2023-02-11T05:33:54;42.80;;;24.00;;
4001;SDS011;2015;48.670;9.060;2023-02-11T05:36:26;39.03;;;24.30;;
4001;SDS011;2015;48.670;9.060;2023-02-11T05:39:00;45.27;;;24.57;;
4001;SDS011;2015;48.670;9.060;2023-02-11T05:41:32;49.90;;;25.77;;
4001;SDS011;2015;48.670;9.060;2023-02-11T05:44:03;37.43;;;24.47;;
4001;SDS011;2015;48.670;9.060;2023-02-11T05:46:35;34.50;;;22.77;;
4001;SDS011;2015;48.670;9.060;2023-02-11T05:49:07;44.70;;;24.00;;
4001;SDS011;2015;48.670;9.060;2023-02-11T05:51:39;34.43;;;22.93;;
4001;SDS011;2015;48.670;9.060;2023-02-11T05:54:11;40.77;;;23.90;;
4001;SDS011;2015;48.670;9.060;2023-02-11T05:56:43;43.30;;;24.53;;
4001;SDS011;2015;48.670;9.060;2023-02-11T05:59:15;38.13;;;23.20;;
4001;SDS011;2015;48.670;9.060;2023-02-11T06:01:47;39.50;;;25.90;;
4001;SDS011;2015;48.670;9.060;2023-02-11T06:04:18;35.60;;;23.73;;
4001;SDS011;2015;48.670;9.060;2023-02-11T06:06:50;36.67;;;22.27;;
4001;SDS011;2015;48.670;9.060;2023-02-11T06:09:23;33.97;;;21.10;;
4001;SDS011;2015;48.670;9.060;2023-02-11T06:11:55;35.10;;;21.60;;
4001;SDS011;2015;48.670;9.060;2023-02-11T06:14:26;36.67;;;21.90;;
4001;SDS011;2015;48.670;9.060;2023-02-11T06:16:58;38.27;;;24.23;;
4001;SDS011;2015;48.670;9.060;2023-02-11T06:19:30;36.27;;;23.50;;
4001;SDS011;2015;48.670;9.060;2023-02-11T06:22:02;43.83;;;27.30;;
4001;SDS011;2015;48.670;9.060;2023-02-11T06:24:34;42.50;;;26.73;;
4001;SDS011;2015;48.670;9.060;2023-02-11T06:27:28;43.67;;;25.30;;
4001;SDS011;2015;48.670;9.060;2023-02-11T06:30:00;40.47;;;25.80;;
4001;SDS011;2015;48.670;9.060;2023-02-11T06:32:32;39.03;;;26.63;;
4001;SDS011;2015;48.670;9.060;2023-02-11T06:35:20;43.80;;;24.73;;
4001;SDS011;2015;48.670;9.060;2023-02-11T06:37:52;43.10;;;23.93;;
4001;SDS011;2015;48.670;9.060;2023-02-11T06:40:24;37.17;;;22.73;;
4001;SDS011;2015;48.670;9.060;2023-02-11T06:42:56;43.60;;;23.00;;
4001;SDS011;2015;48.670;9.060;2023-02-11T06:45:28;41.00;;;22.47;;
4001;SDS011;2015;48.670;9.060;2023-02-11T06:47:59;33.20;;;21.80;;
4001;SDS011;2015;48.670;9.060;2023-02-11T06:50:31;42.63;;;23.37;;
4001;SDS011;2015;48.670;9.060;2023-02-11T06:53:03;44.23;;;27.00;;
4001;SDS011;2015;48.670;9.060;2023-02-11T06:55:34;29.70;;;20.60;;
4001;SDS011;2015;48.670;9.060;2023-02-11T06:58:06;35.40;;;22.50;;
4001;SDS011;2015;48.670;9.060;2023-02-11T07:00:38;38.57;;;25.17;;
4001;SDS011;2015;48.670;9.060;2023-02-11T07:03:10;44.83;;;23.50;;
4001;SDS011;2015;48.670;9.060;2023-02-11T07:05:42;38.83;;;24.50;;
4001;SDS011;2015;48.670;9.060;2023-02-11T07:08:14;44.73;;;25.90;;
4001;SDS011;2015;48.670;9.060;2023-02-11T07:10:45;40.83;;;22.80;;
4001;SDS011;2015;48.670;9.060;2023-02-11T07:13:17;43.87;;;25.60;;
4001;SDS011;2015;48.670;9.060;2023-02-11T07:15:49;40.07;;;26.80;;
4001;SDS011;2015;48.670;9.060;2023-02-11T07:18:21;42.70;;;25.83;;
4001;SDS011;2015;48.670;9.060;2023-02-11T07:20:53;44.40;;;26.10;;
4001;SDS011;2015;48.670;9.060;2023-02-11T07:23:25;39.90;;;24.53;;
4001;SDS011;2015;48.670;9.060;2023-02-11T07:25:57;36.27;;;23.70;;
4001;SDS011;2015;48.670;9.060;2023-02-11T07:28:29;41.40;;;26.27;;
4001;SDS011;2015;48.670;9.060;2023-02-11T07:31:14;39.63;;;24.20;;
4001;SDS011;2015;48.670;9.060;2023-02-11T07:33:47;41.20;;;26.50;;
4001;SDS011;2015;48.670;9.060;2023-02-11T07:36:20;39.37;;;24.30;;
4001;SDS011;2015;48.670;9.060;2023-02-11T07:38:52;39.60;;;24.33;;
4001;SDS011;2015;48.670;9.060;2023-02-11T07:41:24;34.40;;;22.93;;
4001;SDS011;2015;48.670;9.060;2023-02-11T07:43:57;36.23;;;24.53;;
4001;SDS011;2015;48.670;9.060;2023-02-11T07:46:28;49.27;;;26.53;;
4001;SDS011;2015;48.670;9.060;2023-02-11T07:49:00;31.33;;;23.47;;
4001;SDS011;2015;48.670;9.060;2023-02-11T07:51:32;37.97;;;24.67;;
4001;SDS011;2015;48.670;9.060;2023-02-11T07:54:04;37.37;;;24.33;;
4001;SDS011;2015;48.670;9.060;2023-02-11T07:56:36;34.13;;;23.30;;
4001;SDS011;2015;48.670;9.060;2023-02-11T07:59:09;39.80;;;24.40;;
4001;SDS011;2015;48.670;9.060;2023-02-11T08:01:41;43.63;;;23.77;;
4001;SDS011;2015;48.670;9.060;2023-02-11T08:04:13;37.87;;;25.47;;
4001;SDS011;2015;48.670;9.060;2023-02-11T08:06:45;40.27;;;26.23;;
4001;SDS011;2015;48.670;9.060;2023-02-11T08:09:17;38.20;;;24.30;;
4001;SDS011;2015;48.670;9.060;2023-02-11T08:11:48;36.93;;;24.80;;
4001;SDS011;2015;48.670;9.060;2023-02-11T08:14:20;39.77;;;25.13;;
4001;SDS011;2015;48.670;9.060;2023-02-11T08:16:52;43.80;;;25.57;;
4001;SDS011;2015;48.670;9.060;2023-02-11T08:19:24;38.73;;;22.90;;
4001;SDS011;2015;48.670;9.060;2023-02-11T08:21:56;33.80;;;23.47;;
4001;SDS011;2015;48.670;9.060;2023-02-11T08:24:30;34.67;;;24.00;;
4001;SDS011;2015;48.670;9.060;2023-02-11T08:27:01;34.97;;;25.30;;
4001;SDS011;2015;48.670;9.060;2023-02-11T08:29:33;37.00;;;24.87;;
4001;SDS011;2015;48.670;9.060;2023-02-11T08:32:05;38.90;;;24.50;;
4001;SDS011;2015;48.670;9.060;2023-02-11T08:34:37;40.07;;;25.37;;
4001;SDS011;2015;48.670;9.060;2023-02-11T08:37:09;35.40;;;24.93;;
4001;SDS011;2015;48.670;9.060;2023-02-11T08:39:40;43.53;;;27.10;;
4001;SDS011;2015;48.670;9.060;2023-02-11T08:42:12;43.40;;;23.27;;
4001;SDS011;2015;48.670;9.060;2023-02-11T08:44:45;37.13;;;22.93;;
4001;SDS011;2015;48.670;9.060;2023-02-11T08:47:17;36.60;;;22.40;;
4001;SDS011;2015;48.670;9.060;2023-02-11T08:49:49;40.77;;;25.63;;
4001;SDS011;2015;48.670;9.060;2023-02-11T08:52:20;43.67;;;22.57;;
4001;SDS011;2015;48.670;9.060;2023-02-11T08:54:52;32.60;;;21.87;;
4001;SDS011;2015;48.670;9.060;2023-02-11T08:57:24;32.60;;;24.10;;
4001;SDS011;2015;48.670;9.060;2023-02-11T08:59:56;43.57;;;28.27;;
4001;SDS011;2015;48.670;9.060;2023-02-11T09:02:29;35.47;;;24.10;;
4001;SDS011;2015;48.670;9.060;2023-02-11T09:05:01;44.80;;;23.50;;
4001;SDS011;2015;48.670;9.060;2023-02-11T09:07:32;41.30;;;23.20;;
4001;SDS011;2015;48.670;9.060;2023-02-11T09:10:04;28.23;;;20.30;;
4001;SDS011;2015;48.670;9.060;2023-02-11T09:12:36;33.37;;;21.17;;
4001;SDS011;2015;48.670;9.060;2023-02-11T09:15:08;33.33;;;21.40;;
4001;SDS011;2015;48.670;9.060;2023-02-11T09:17:40;29.13;;;19.70;;
4001;SDS011;2015;48.670;9.060;2023-02-11T09:20:12;36.90;;;21.37;;
4001;SDS011;2015;48.670;9.060;2023-02-11T09:22:43;27.63;;;20.30;;
4001;SDS011;2015;48.670;9.060;2023-02-11T09:25:15;35.33;;;22.17;;
4001;SDS011;2015;48.670;9.060;2023-02-11T09:27:47;28.10;;;19.70;;
4001;SDS011;2015;48.670;9.060;2023-02-11T09:30:20;39.23;;;24.87;;
4001;SDS011;2015;48.670;9.060;2023-02-11T09:32:51;39.00;;;23.37;;
4001;SDS011;2015;48.670;9.060;2023-02-11T09:35:23;39.90;;;23.00;;
4001;SDS011;2015;48.670;9.060;2023-02-11T09:37:55;44.03;;;25.30;;
4001;SDS011;2015;48.670;9.060;2023-02-11T09:40:27;40.93;;;25.80;;
4001;SDS011;2015;48.670;9.060;2023-02-11T09:43:03;36.30;;;23.17;;
4001;SDS011;2015;48.670;9.060;2023-02-11T09:45:41;37.10;;;22.77;;
4001;SDS011;2015;48.670;9.060;2023-02-11T09:48:14;29.60;;;21.23;;
4001;SDS011;2015;48.670;9.060;2023-02-11T09:50:53;32.00;;;22.47;;
4001;SDS011;2015;48.670;9.060;2023-02-11T09:53:31;29.00;;;20.10;;
4001;SDS011;2015;48.670;9.060;2023-02-11T09:56:12;28.33;;;20.77;;
4001;SDS011;2015;48.670;9.060;2023-02-11T09:58:45;27.83;;;20.20;;
4001;SDS011;2015;48.670;9.060;2023-02-11T10:07:11;23.93;;;18.23;;
4001;SDS011;2015;48.670;9.060;2023-02-11T10:21:31;27.23;;;20.03;;
4001;SDS011;2015;48.670;9.060;2023-02-11T10:24:30;23.80;;;19.90;;
4001;SDS011;2015;48.670;9.060;2023-02-11T10:27:05;31.70;;;18.67;;
4001;SDS011;2015;48.670;9.060;2023-02-11T10:29:52;26.25;;;20.25;;
4001;SDS011;2015;48.670;9.060;2023-02-11T10:32:41;25.63;;;18.97;;
4001;SDS011;2015;48.670;9.060;2023-02-11T10:35:29;21.40;;;17.20;;
4001;SDS011;2015;48.670;9.060;2023-02-11T10:38:02;19.33;;;16.17;;
4001;SDS011;2015;48.670;9.060;2023-02-11T10:40:34;22.07;;;16.93;;
4001;SDS011;2015;48.670;9.060;2023-02-11T10:43:09;20.80;;;16.80;;
4001;SDS011;2015;48.670;9.060;2023-02-11T10:45:46;21.47;;;17.30;;
4001;SDS011;2015;48.670;9.060;2023-02-11T10:51:16;18.17;;;15.30;;
4001;SDS011;2015;48.670;9.060;2023-02-11T10:56:48;22.60;;;17.33;;
4001;SDS011;2015;48.670;9.060;2023-02-11T10:59:32;17.93;;;15.03;;
4001;SDS011;2015;48.670;9.060;2023-02-11T11:02:23;19.93;;;14.23;;
4001;SDS011;2015;48.670;9.060;2023-02-11T11:05:17;19.40;;;16.27;;
4001;SDS011;2015;48.670;9.060;2023-02-11T11:08:06;19.47;;;14.77;;
4001;SDS011;2015;48.670;9.060;2023-02-11T11:10:40;19.33;;;15.00;;
4001;SDS011;2015;48.670;9.060;2023-02-11T11:13:25;20.30;;;17.70;;
4001;SDS011;2015;48.670;9.060;2023-02-11T11:16:14;19.50;;;17.43;;
4001;SDS011;2015;48.670;9.060;2023-02-11T11:19:12;21.33;;;14.17;;
4001;SDS011;2015;48.670;9.060;2023-02-11T11:24:20;17.30;;;14.80;;
4001;SDS011;2015;48.670;9.060;2023-02-11T11:26:58;17.83;;;14.07;;
4001;SDS011;2015;48.670;9.060;2023-02-11T11:32:26;15.23;;;13.00;;
4001;SDS011;2015;48.670;9.060;2023-02-11T11:35:03;15.20;;;13.27;;
4001;SDS011;2015;48.670;9.060;2023-02-11T11:37:51;15.90;;;13.27;;
4001;SDS011;2015;48.670;9.060;2023-02-11T11:40:32;16.57;;;13.93;;
4001;SDS011;2015;48.670;9.060;2023-02-11T11:43:12;16.53;;;12.43;;
4001;SDS011;2015;48.670;9.060;2023-02-11T11:45:54;15.63;;;11.50;;
4001;SDS011;2015;48.670;9.060;2023-02-11T11:48:35;14.45;;;12.68;;
4001;SDS011;2015;48.670;9.060;2023-02-11T11:51:09;16.73;;;14.40;;
4001;SDS011;2015;48.670;9.060;2023-02-11T11:53:44;17.67;;;13.20;;
4001;SDS011;2015;48.670;9.060;2023-02-11T11:56:25;18.33;;;13.52;;
4001;SDS011;2015;48.670;9.060;2023-02-11T11:59:13;15.13;;;12.53;;
4001;SDS011;2015;48.670;9.060;2023-02-11T12:04:44;13.60;;;11.37;;
4001;SDS011;2015;48.670;9.060;2023-02-11T12:07:26;12.47;;;10.50;;
4001;SDS011;2015;48.670;9.060;2023-02-11T12:12:52;15.23;;;11.00;;
4001;SDS011;2015;48.670;9.060;2023-02-11T12:15:56;13.90;;;10.77;;
4001;SDS011;2015;48.670;9.060;2023-02-11T12:27:08;10.90;;;9.33;;
4001;SDS011;2015;48.670;9.060;2023-02-11T12:30:09;12.07;;;9.07;;
4001;SDS011;2015;48.670;9.060;2023-02-11T12:39:02;10.77;;;9.60;;
4001;SDS011;2015;48.670;9.060;2023-02-11T12:42:00;11.60;;;9.33;;
4001;SDS011;2015;48.670;9.060;2023-02-11T13:02:30;11.77;;;9.07;;
4001;SDS011;2015;48.670;9.060;2023-02-11T13:08:13;11.43;;;8.50;;
4001;SDS011;2015;48.670;9.060;2023-02-11T13:11:06;14.47;;;9.07;;
4001;SDS011;2015;48.670;9.060;2023-02-11T13:14:11;9.53;;;7.70;;
4001;SDS011;2015;48.670;9.060;2023-02-11T13:16:45;8.88;;;7.70;;
4001;SDS011;2015;48.670;9.060;2023-02-11T13:19:30;9.90;;;8.43;;
4001;SDS011;2015;48.670;9.060;2023-02-11T13:22:26;9.23;;;8.30;;
4001;SDS011;2015;48.670;9.060;2023-02-11T13:25:18;8.60;;;7.10;;
4001;SDS011;2015;48.670;9.060;2023-02-11T13:28:15;9.07;;;8.37;;
4001;SDS011;2015;48.670;9.060;2023-02-11T13:30:56;8.57;;;7.80;;
4001;SDS011;2015;48.670;9.060;2023-02-11T13:33:35;9.20;;;8.30;;
4001;SDS011;2015;48.670;9.060;2023-02-11T13:36:10;10.30;;;7.53;;
4001;SDS011;2015;48.670;9.060;2023-02-11T13:39:18;10.67;;;9.53;;
4001;SDS011;2015;48.670;9.060;2023-02-11T13:41:50;9.00;;;8.20;;
4001;SDS011;2015;48.670;9.060;2023-02-11T13:44:33;9.33;;;8.43;;
4001;SDS011;2015;48.670;9.060;2023-02-11T13:47:05;13.03;;;8.90;;
4001;SDS011;2015;48.670;9.060;2023-02-11T13:49:38;17.10;;;12.77;;
4001;SDS011;2015;48.670;9.060;2023-02-11T13:57:44;14.27;;;11.60;;
4001;SDS011;2015;48.670;9.060;2023-02-11T14:09:09;13.93;;;10.70;;
4001;SDS011;2015;48.670;9.060;2023-02-11T14:12:42;16.27;;;11.50;;
4001;SDS011;2015;48.670;9.060;2023-02-11T14:15:01;15.00;;;11.43;;
4001;SDS011;2015;48.670;9.060;2023-02-11T14:17:49;15.20;;;10.57;;
4001;SDS011;2015;48.670;9.060;2023-02-11T14:20:31;11.07;;;9.97;;
4001;SDS011;2015;48.670;9.060;2023-02-11T14:23:05;12.20;;;9.97;;
4001;SDS011;2015;48.670;9.060;2023-02-11T14:25:52;12.57;;;11.17;;
4001;SDS011;2015;48.670;9.060;2023-02-11T14:31:25;10.93;;;9.77;;
4001;SDS011;2015;48.670;9.060;2023-02-11T14:41:51;10.90;;;9.77;;
4001;SDS011;2015;48.670;9.060;2023-02-11T14:44:24;12.03;;;10.20;;
4001;SDS011;2015;48.670;9.060;2023-02-11T14:46:58;11.02;;;8.95;;
4001;SDS011;2015;48.670;9.060;2023-02-11T14:49:32;12.60;;;9.47;;
4001;SDS011;2015;48.670;9.060;2023-02-11T14:52:14;11.93;;;9.60;;
4001;SDS011;2015;48.670;9.060;2023-02-11T14:57:39;15.43;;;11.50;;
4001;SDS011;2015;48.670;9.060;2023-02-11T15:00:19;13.70;;;11.00;;
4001;SDS011;2015;48.670;9.060;2023-02-11T15:02:51;17.20;;;11.20;;
4001;SDS011;2015;48.670;9.060;2023-02-11T15:05:25;16.23;;;12.03;;
4001;SDS011;2015;48.670;9.060;2023-02-11T15:08:02;17.47;;;12.37;;
4001;SDS011;2015;48.670;9.060;2023-02-11T15:10:42;19.90;;;12.37;;
4001;SDS011;2015;48.670;9.060;2023-02-11T15:13:16;19.93;;;13.07;;
4001;SDS011;2015;48.670;9.060;2023-02-11T15:15:50;20.63;;;14.43;;
4001;SDS011;2015;48.670;9.060;2023-02-11T15:18:49;22.67;;;14.30;;
4001;SDS011;2015;48.670;9.060;2023-02-11T15:21:27;25.77;;;14.17;;
4001;SDS011;2015;48.670;9.060;2023-02-11T15:24:16;22.27;;;14.30;;
4001;SDS011;2015;48.670;9.060;2023-02-11T15:26:59;22.50;;;13.90;;
4001;SDS011;2015;48.670;9.060;2023-02-11T15:29:48;20.80;;;13.73;;
4001;SDS011;2015;48.670;9.060;2023-02-11T15:32:21;14.47;;;12.13;;
4001;SDS011;2015;48.670;9.060;2023-02-11T15:34:55;18.63;;;12.90;;
4001;SDS011;2015;48.670;9.060;2023-02-11T15:37:28;18.73;;;12.70;;
4001;SDS011;2015;48.670;9.060;2023-02-11T15:43:04;19.03;;;13.90;;
4001;SDS011;2015;48.670;9.060;2023-02-11T15:45:59;17.73;;;12.93;;
4001;SDS011;2015;48.670;9.060;2023-02-11T15:48:36;18.00;;;13.47;;
4001;SDS011;2015;48.670;9.060;2023-02-11T15:51:35;18.10;;;11.57;;
4001;SDS011;2015;48.670;9.060;2023-02-11T15:54:15;14.80;;;12.00;;
4001;SDS011;2015;48.670;9.060;2023-02-11T15:56:50;23.87;;;11.07;;
4001;SDS011;2015;48.670;9.060;2023-02-11T15:59:32;15.53;;;12.17;;
4001;SDS011;2015;48.670;9.060;2023-02-11T16:02:20;16.07;;;11.27;;
4001;SDS011;2015;48.670;9.060;2023-02-11T16:05:06;11.83;;;10.53;;
4001;SDS011;2015;48.670;9.060;2023-02-11T16:10:17;14.20;;;10.53;;
4001;SDS011;2015;48.670;9.060;2023-02-11T16:12:55;19.67;;;10.73;;
4001;SDS011;2015;48.670;9.060;2023-02-11T16:15:43;19.40;;;11.60;;
4001;SDS011;2015;48.670;9.060;2023-02-11T16:18:26;16.53;;;10.67;;
4001;SDS011;2015;48.670;9.060;2023-02-11T16:21:11;18.23;;;11.60;;
4001;SDS011;2015;48.670;9.060;2023-02-11T16:23:51;20.37;;;13.50;;
4001;SDS011;2015;48.670;9.060;2023-02-11T16:29:10;21.13;;;14.50;;
4001;SDS011;2015;48.670;9.060;2023-02-11T16:31:45;17.70;;;13.50;;
4001;SDS011;2015;48.670;9.060;2023-02-11T16:34:19;24.35;;;15.52;;
4001;SDS011;2015;48.670;9.060;2023-02-11T16:36:55;25.33;;;16.70;;
4001;SDS011;2015;48.670;9.060;2023-02-11T16:39:26;20.60;;;13.97;;
4001;SDS011;2015;48.670;9.060;2023-02-11T16:41:58;18.30;;;14.40;;
4001;SDS011;2015;48.670;9.060;2023-02-11T16:44:32;23.27;;;16.00;;
4001;SDS011;2015;48.670;9.060;2023-02-11T16:47:05;25.27;;;17.07;;
4001;SDS011;2015;48.670;9.060;2023-02-11T16:49:45;25.53;;;16.43;;
4001;SDS011;2015;48.670;9.060;2023-02-11T16:52:17;25.97;;;17.87;;
4001;SDS011;2015;48.670;9.060;2023-02-11T16:54:50;26.43;;;17.23;;
4001;SDS011;2015;48.670;9.060;2023-02-11T16:57:23;26.40;;;18.03;;
4001;SDS011;2015;48.670;9.060;2023-02-11T17:00:00;28.40;;;19.13;;
4001;SDS011;2015;48.670;9.060;2023-02-11T17:02:32;27.10;;;16.53;;
4001;SDS011;2015;48.670;9.060;2023-02-11T17:05:06;28.60;;;18.07;;
4001;SDS011;2015;48.670;9.060;2023-02-11T17:07:45;29.60;;;18.77;;
4001;SDS011;2015;48.670;9.060;2023-02-11T17:10:18;28.33;;;18.33;;
4001;SDS011;2015;48.670;9.060;2023-02-11T17:12:52;22.30;;;16.00;;
4001;SDS011;2015;48.670;9.060;2023-02-11T17:15:24;29.10;;;19.97;;
4001;SDS011;2015;48.670;9.060;2023-02-11T17:17:56;28.40;;;18.27;;
4001;SDS011;2015;48.670;9.060;2023-02-11T17:20:28;26.53;;;17.50;;
4001;SDS011;2015;48.670;9.060;2023-02-11T17:23:00;34.57;;;23.00;;
4001;SDS011;2015;48.670;9.060;2023-02-11T17:25:32;32.33;;;19.93;;
4001;SDS011;2015;48.670;9.060;2023-02-11T17:28:04;35.63;;;19.43;;
4001;SDS011;2015;48.670;9.060;2023-02-11T17:30:38;29.17;;;20.80;;
4001;SDS011;2015;48.670;9.060;2023-02-11T17:33:11;26.77;;;19.53;;
4001;SDS011;2015;48.670;9.060;2023-02-11T17:35:43;31.80;;;19.70;;
4001;SDS011;2015;48.670;9.060;2023-02-11T17:38:17;32.17;;;20.90;;
4001;SDS011;2015;48.670;9.060;2023-02-11T17:40:58;27.23;;;19.43;;
4001;SDS011;2015;48.670;9.060;2023-02-11T17:43:31;34.50;;;19.87;;
4001;SDS011;2015;48.670;9.060;2023-02-11T17:46:06;36.57;;;20.03;;
4001;SDS011;2015;48.670;9.060;2023-02-11T17:48:40;31.13;;;19.77;;
4001;SDS011;2015;48.670;9.060;2023-02-11T17:53:55;35.10;;;19.97;;
4001;SDS011;2015;48.670;9.060;2023-02-11T17:56:30;33.90;;;20.63;;